Main page
METAR-TAF:

METAR-TAF

Airports :

Multan International Airport

Multan, Pakistan

latitude: 30-12-12N, longitude: 71-25-09E, elevation: 122 m

Current weather observation

The report was made 26 minutes ago, at 07:00 UTC
Wind 14 kt from the Southwest
Temperature 36°C
Humidity 60%
Pressure 993 hPa
Visibility: 3500 m
Low drifting dust

METAR: OPMT 110700Z 23014KT 3500 DRDU NSC 36/27 Q0993 TEMPO 31025KT 2000 BLDU

Time: 12:26 (07:26 UTC)

Forecast

The report was made 3 hours and 41 minutes ago, at 03:45 UTC
Forecast valid from 11 at 06 UTC to 11 at 24 UTC
Wind 12 kt from the Southwest
Visibility: 4000 m
Scattered clouds at a height of 12000 ft
haze
Probability 30% :
Temporary
from 11 at 20 UTC to 11 at 24 UTC
Wind 30 kt from the North
Visibility: 0800 m
Few clouds at a height of 3000 ft, Cumulonimbus.
Scattered clouds at a height of 4000 ft
Broken clouds at a height of 10000 ft

TAF: OPMT 110345Z 1106/1124 23012KT 4000 HZ SCT120 TX40/1110Z PROB30 TEMPO 1120/1124 36030KT 0800 DSTSRA FEW030CB SCT040 BKN100

Weather observations and forecasts of more than 4000 airports (METAR and TAF reports).

The available stations are represented by yellow and red dots on the map.

Hover mouse over dot to see the name of the station.

Then click to see weather observations and forecasts.

To change the map : click on the green buttons with a black cross to zoom in, on the green button with a dash to zoom out, or on the green arrows for adjacent maps.


METAR-TAF: